Time;durP1;ratioP1;P1;durP2;ratioP2;P2;SDS_P1;SDS_P2;PMS_P1;PMS_P2;Temp;Humidity;BMP_temperature;BMP_pressure;BME280_temperature;BME280_humidity;BME280_pressure;Samples;Min_cycle;Max_cycle;Signal;HPM_P1;HPM_P2
2020/12/12 00:02:14;;;;;;;15.37;5.77;;;;;;;2.75;97.35;98805.50;5014792;28;20518;-65
2020/12/12 00:04:40;;;;;;;14.60;5.63;;;;;;;2.71;97.56;98807.22;5012633;28;20033;-65
2020/12/12 00:07:06;;;;;;;14.90;5.63;;;;;;;2.74;97.02;98798.63;5006538;28;20786;-67
2020/12/12 00:09:32;;;;;;;16.07;5.60;;;;;;;2.70;97.59;98808.09;5003026;28;20292;-65
2020/12/12 00:11:58;;;;;;;16.17;6.27;;;;;;;2.72;97.60;98803.78;4998838;28;20570;-65
2020/12/12 00:14:23;;;;;;;11.23;4.73;;;;;;;2.70;97.22;98808.09;5004450;28;21534;-66
2020/12/12 00:16:53;;;;;;;17.10;6.40;;;;;;;2.65;97.68;98802.03;5005586;28;20022;-65
2020/12/12 00:19:18;;;;;;;16.03;5.30;;;;;;;2.64;97.23;98802.91;5025335;28;20033;-66
2020/12/12 00:21:44;;;;;;;12.17;5.10;;;;;;;2.62;97.65;98799.47;5017410;28;20290;-66
2020/12/12 00:24:09;;;;;;;14.53;5.77;;;;;;;2.60;97.83;98803.75;5014097;28;20407;-67
2020/12/12 00:26:34;;;;;;;14.27;4.83;;;;;;;2.60;98.11;98796.03;5024719;28;20504;-66
2020/12/12 00:29:00;;;;;;;15.83;6.30;;;;;;;2.55;98.10;98802.91;5011697;28;20045;-66
2020/12/12 00:31:25;;;;;;;16.60;6.00;;;;;;;2.52;98.25;98792.53;5011225;28;20116;-66
2020/12/12 00:33:51;;;;;;;14.20;5.07;;;;;;;2.53;98.22;98800.28;5021965;28;20112;-66
2020/12/12 00:36:16;;;;;;;17.27;5.80;;;;;;;2.45;99.08;98791.69;5006863;28;20128;-65
2020/12/12 00:38:43;;;;;;;11.93;4.77;;;;;;;2.55;97.95;98787.41;5005510;28;20018;-66
2020/12/12 00:41:09;;;;;;;18.87;6.00;;;;;;;2.46;98.32;98782.22;5008709;28;20599;-66
2020/12/12 00:43:34;;;;;;;15.10;6.13;;;;;;;2.49;98.54;98792.53;5009720;28;20285;-67
2020/12/12 00:46:01;;;;;;;15.03;5.70;;;;;;;2.53;98.53;98799.44;5013245;28;20129;-67
2020/12/12 00:48:27;;;;;;;14.33;5.87;;;;;;;2.52;98.29;98798.56;5006730;28;20088;-66
2020/12/12 00:50:52;;;;;;;15.40;5.40;;;;;;;2.56;97.72;98794.31;5011392;28;20284;-67
2020/12/12 00:53:18;;;;;;;14.40;5.47;;;;;;;2.56;97.76;98791.72;5000492;28;20614;-66
2020/12/12 00:55:44;;;;;;;14.80;6.03;;;;;;;2.51;97.97;98795.97;5007604;28;20112;-66
2020/12/12 00:58:09;;;;;;;18.97;6.50;;;;;;;2.50;98.20;98802.00;4988126;28;20110;-66
2020/12/12 01:00:35;;;;;;;14.13;5.03;;;;;;;2.50;98.46;98799.44;5001816;28;20169;-66
2020/12/12 01:03:01;;;;;;;14.97;5.63;;;;;;;2.54;98.58;98806.31;5012145;28;20408;-66
2020/12/12 01:05:28;;;;;;;15.87;5.77;;;;;;;2.50;99.12;98799.44;5009736;28;20048;-67
2020/12/12 01:07:53;;;;;;;14.83;6.03;;;;;;;2.55;97.76;98795.16;5007151;28;20302;-67
2020/12/12 01:10:19;;;;;;;17.27;6.30;;;;;;;2.57;98.32;98803.75;5008799;28;20660;-65
2020/12/12 01:12:44;;;;;;;17.63;5.70;;;;;;;2.50;98.42;98804.59;5002473;28;20492;-65
2020/12/12 01:15:10;;;;;;;16.47;6.10;;;;;;;2.48;98.54;98806.31;5008403;28;20052;-66
2020/12/12 01:17:35;;;;;;;18.60;6.97;;;;;;;2.46;98.99;98813.19;5002188;28;20127;-67
2020/12/12 01:20:00;;;;;;;17.97;6.37;;;;;;;2.45;98.99;98814.91;5010246;28;20440;-66
2020/12/12 01:22:26;;;;;;;17.20;7.03;;;;;;;2.52;98.90;98820.91;5004774;28;20042;-65
2020/12/12 01:24:51;;;;;;;15.90;6.53;;;;;;;2.51;98.61;98821.78;5011726;28;20145;-67
2020/12/12 01:27:18;;;;;;;17.57;6.17;;;;;;;2.53;98.96;98820.06;5003450;28;20111;-67
2020/12/12 01:29:43;;;;;;;15.50;5.87;;;;;;;2.53;98.50;98826.09;5001214;28;20045;-67
2020/12/12 01:32:08;;;;;;;18.23;7.50;;;;;;;2.52;98.70;98824.34;5001736;28;20655;-67
2020/12/12 01:34:34;;;;;;;18.57;6.00;;;;;;;2.56;98.36;98825.25;5005311;28;20362;-67
2020/12/12 01:37:00;;;;;;;17.53;6.67;;;;;;;2.50;98.87;98820.91;4998927;28;20053;-67
2020/12/12 01:39:25;;;;;;;18.07;6.47;;;;;;;2.46;99.51;98819.19;5004361;28;20391;-67
2020/12/12 01:41:54;;;;;;;19.20;6.87;;;;;;;2.50;99.08;98820.06;5006952;28;20065;-65
2020/12/12 01:44:20;;;;;;;13.70;5.00;;;;;;;2.47;99.42;98831.25;5021841;28;20142;-67
2020/12/12 01:46:47;;;;;;;19.73;6.87;;;;;;;2.51;99.42;98821.78;5011233;28;20395;-65
2020/12/12 01:49:13;;;;;;;17.20;6.10;;;;;;;2.50;99.30;98818.34;5007055;28;20037;-66
2020/12/12 01:51:39;;;;;;;17.57;7.03;;;;;;;2.51;99.53;98827.78;5011731;28;20369;-67
2020/12/12 01:54:05;;;;;;;20.00;7.07;;;;;;;2.39;100.00;98827.75;5013361;28;20452;-66
2020/12/12 01:56:31;;;;;;;12.03;5.53;;;;;;;2.47;100.00;98814.91;5006200;28;20034;-67
2020/12/12 01:58:57;;;;;;;16.17;6.53;;;;;;;2.44;100.00;98814.91;5000587;28;20705;-65
2020/12/12 02:01:23;;;;;;;16.83;5.80;;;;;;;2.46;100.00;98814.03;5017653;28;20029;-65
2020/12/12 02:03:50;;;;;;;20.53;7.00;;;;;;;2.44;100.00;98820.06;5022921;28;20032;-67
2020/12/12 02:06:17;;;;;;;19.97;7.83;;;;;;;2.44;100.00;98826.06;5017419;28;20334;-66
2020/12/12 02:08:43;;;;;;;20.80;8.03;;;;;;;2.37;100.00;98829.47;5015787;28;20300;-66
2020/12/12 02:11:13;;;;;;;20.57;7.80;;;;;;;2.38;100.00;98822.59;5019896;28;20314;-67
2020/12/12 02:13:47;;;;;;;19.70;6.17;;;;;;;2.46;100.00;98828.66;5014946;28;20269;-66
2020/12/12 02:16:17;;;;;;;18.27;7.03;;;;;;;2.49;100.00;98818.34;5016296;28;20322;-66
2020/12/12 02:18:42;;;;;;;17.80;6.27;;;;;;;2.50;100.00;98815.75;5011351;28;20334;-65
2020/12/12 02:21:08;;;;;;;17.50;6.60;;;;;;;2.56;100.00;98820.97;5014609;28;20655;-66
2020/12/12 02:23:34;;;;;;;17.77;6.33;;;;;;;2.57;100.00;98822.69;5014541;28;20463;-66
2020/12/12 02:26:00;;;;;;;20.97;7.83;;;;;;;2.55;100.00;98826.97;5015171;28;20491;-67
2020/12/12 02:28:32;;;;;;;15.60;5.80;;;;;;;2.53;100.00;98826.09;5009991;28;20374;-66
2020/12/12 02:30:57;;;;;;;21.40;7.43;;;;;;;2.54;100.00;98832.09;5012742;28;20088;-65
2020/12/12 02:33:23;;;;;;;17.07;6.63;;;;;;;2.50;100.00;98826.09;5000712;28;20791;-65
2020/12/12 02:35:48;;;;;;;17.53;6.13;;;;;;;2.52;100.00;98813.19;5018165;28;20033;-66
2020/12/12 02:38:14;;;;;;;18.83;6.83;;;;;;;2.54;100.00;98814.03;5015742;28;20416;-67
2020/12/12 02:40:40;;;;;;;18.97;7.23;;;;;;;2.44;100.00;98809.75;5006897;28;20037;-64
2020/12/12 02:43:15;;;;;;;18.97;6.87;;;;;;;2.52;100.00;98818.34;5030867;28;20025;-67
2020/12/12 02:45:45;;;;;;;14.90;5.83;;;;;;;2.51;100.00;98826.94;5019702;28;20079;-66
2020/12/12 02:48:11;;;;;;;18.57;7.43;;;;;;;2.50;100.00;98820.06;5027913;28;20794;-66
2020/12/12 02:50:36;;;;;;;19.57;7.50;;;;;;;2.53;100.00;98825.22;5014531;28;20281;-66
2020/12/12 02:53:02;;;;;;;24.00;7.60;;;;;;;2.52;100.00;98829.53;5006773;28;20065;-66
2020/12/12 02:55:28;;;;;;;18.37;7.00;;;;;;;2.53;100.00;98835.53;5017736;28;20056;-67
2020/12/12 02:57:53;;;;;;;21.00;7.27;;;;;;;2.56;100.00;98827.84;5013873;28;20026;-66
2020/12/12 03:00:22;;;;;;;21.20;8.03;;;;;;;2.53;100.00;98830.38;5012161;28;20053;-66
2020/12/12 03:02:48;;;;;;;23.03;8.30;;;;;;;2.46;100.00;98829.50;5014934;28;20065;-67
2020/12/12 03:05:13;;;;;;;20.20;7.73;;;;;;;2.49;100.00;98829.53;5018097;28;20277;-67
2020/12/12 03:07:39;;;;;;;21.00;7.50;;;;;;;2.48;100.00;98826.94;5013634;28;20527;-67
2020/12/12 03:10:06;;;;;;;19.40;7.03;;;;;;;2.50;100.00;98830.38;5020598;28;20037;-67
2020/12/12 03:12:33;;;;;;;20.53;7.57;;;;;;;2.51;100.00;98834.69;5021982;28;20109;-66
2020/12/12 03:14:59;;;;;;;23.37;8.00;;;;;;;2.50;100.00;98835.53;5011446;28;20287;-67
2020/12/12 03:17:24;;;;;;;18.17;7.03;;;;;;;2.46;100.00;98828.66;5013639;28;20767;-65
2020/12/12 03:19:50;;;;;;;22.40;8.50;;;;;;;2.46;100.00;98818.34;5011999;28;20695;-64
2020/12/12 03:22:15;;;;;;;18.63;6.50;;;;;;;2.44;100.00;98825.22;5011054;28;20129;-66
2020/12/12 03:24:41;;;;;;;15.00;5.63;;;;;;;2.46;100.00;98828.66;5020065;28;20416;-65
2020/12/12 03:27:06;;;;;;;18.73;6.83;;;;;;;2.51;100.00;98834.69;5021392;28;20037;-66
2020/12/12 03:29:31;;;;;;;21.87;8.53;;;;;;;2.49;100.00;98836.41;5013855;28;20026;-66
2020/12/12 03:31:57;;;;;;;20.67;6.07;;;;;;;2.50;100.00;98835.53;5017258;28;20057;-65
2020/12/12 03:34:22;;;;;;;21.40;8.83;;;;;;;2.42;100.00;98832.06;5008039;28;20028;-66
2020/12/12 03:36:48;;;;;;;24.17;8.87;;;;;;;2.42;100.00;98847.53;5010611;28;20108;-65
2020/12/12 03:39:13;;;;;;;21.23;8.10;;;;;;;2.42;100.00;98829.47;5011818;28;20037;-65
2020/12/12 03:41:39;;;;;;;20.67;7.47;;;;;;;2.40;100.00;98839.78;5028435;28;20029;-65
2020/12/12 03:44:04;;;;;;;21.87;7.77;;;;;;;2.37;100.00;98844.09;5020542;28;20060;-65
2020/12/12 03:46:29;;;;;;;19.40;7.87;;;;;;;2.40;100.00;98844.09;5020501;28;20099;-66
2020/12/12 03:48:55;;;;;;;18.30;6.70;;;;;;;2.41;100.00;98836.34;5017963;28;20398;-66
2020/12/12 03:51:20;;;;;;;20.27;7.03;;;;;;;2.47;100.00;98845.84;5011099;28;20435;-66
2020/12/12 03:53:46;;;;;;;22.10;8.07;;;;;;;2.46;100.00;98849.28;5012903;28;20025;-65
2020/12/12 03:56:14;;;;;;;25.03;8.57;;;;;;;2.41;100.00;98850.97;5015019;28;20037;-65
2020/12/12 03:58:39;;;;;;;25.83;7.37;;;;;;;2.43;100.00;98850.16;5012715;28;20118;-65
2020/12/12 04:01:05;;;;;;;21.13;8.13;;;;;;;2.44;100.00;98851.00;5011503;28;20686;-65
2020/12/12 04:03:30;;;;;;;24.07;8.27;;;;;;;2.41;100.00;98848.38;5014377;28;20503;-65
2020/12/12 04:05:55;;;;;;;20.23;7.57;;;;;;;2.41;100.00;98845.81;5018269;28;20029;-65
2020/12/12 04:08:21;;;;;;;18.80;7.47;;;;;;;2.41;100.00;98835.50;5017967;28;20038;-64
2020/12/12 04:10:46;;;;;;;22.57;7.23;;;;;;;2.42;100.00;98844.94;5022523;28;20088;-66
2020/12/12 04:13:12;;;;;;;21.53;8.07;;;;;;;2.47;100.00;98861.31;5010071;28;20036;-64
2020/12/12 04:15:37;;;;;;;23.73;7.53;;;;;;;2.51;100.00;98853.59;5013915;28;20021;-66
2020/12/12 04:18:02;;;;;;;25.33;6.93;;;;;;;2.51;100.00;98857.91;5013728;28;20034;-66
2020/12/12 04:20:28;;;;;;;20.03;7.37;;;;;;;2.49;100.00;98855.31;5019822;28;20040;-66
2020/12/12 04:22:53;;;;;;;23.97;8.37;;;;;;;2.46;100.00;98857.03;5027494;28;20037;-64
2020/12/12 04:25:19;;;;;;;25.53;8.80;;;;;;;2.46;100.00;98854.44;5024951;28;20455;-67
2020/12/12 04:27:45;;;;;;;21.80;7.53;;;;;;;2.49;100.00;98859.59;5014881;28;20489;-64
2020/12/12 04:30:10;;;;;;;22.10;8.03;;;;;;;2.53;100.00;98866.50;5013273;28;20030;-66
2020/12/12 04:32:36;;;;;;;20.47;7.20;;;;;;;2.54;100.00;98857.91;5010801;28;20029;-64
2020/12/12 04:35:01;;;;;;;23.43;8.13;;;;;;;2.52;100.00;98859.63;5009941;28;20116;-66
2020/12/12 04:37:27;;;;;;;24.80;9.43;;;;;;;2.53;100.00;98861.34;5016112;28;20072;-67
2020/12/12 04:39:52;;;;;;;21.40;8.27;;;;;;;2.52;100.00;98854.44;5058098;28;20033;-65
2020/12/12 04:42:19;;;;;;;18.03;6.87;;;;;;;2.58;100.00;98862.22;5012279;28;20030;-65
2020/12/12 04:44:46;;;;;;;17.60;6.87;;;;;;;2.59;100.00;98864.81;5009934;28;20034;-65
2020/12/12 04:47:12;;;;;;;21.20;7.50;;;;;;;2.55;100.00;98864.81;5019267;28;20816;-66
2020/12/12 04:49:37;;;;;;;18.47;6.17;;;;;;;2.58;100.00;98864.81;5019225;28;20291;-65
2020/12/12 04:52:04;;;;;;;23.53;7.20;;;;;;;2.61;100.00;98857.06;5017833;28;20288;-66
2020/12/12 04:54:34;;;;;;;20.37;8.80;;;;;;;2.63;100.00;98863.09;5013545;28;20036;-65
2020/12/12 04:57:05;;;;;;;22.67;8.87;;;;;;;2.57;100.00;98863.94;5021730;28;20330;-65
2020/12/12 04:59:32;;;;;;;19.33;7.47;;;;;;;2.59;100.00;98861.38;5004874;28;20392;-64
2020/12/12 05:02:00;;;;;;;21.47;7.83;;;;;;;2.63;100.00;98858.78;5012196;28;20286;-63
2020/12/12 05:04:25;;;;;;;28.87;7.57;;;;;;;2.62;100.00;98859.66;5016010;28;20716;-64
2020/12/12 05:06:51;;;;;;;20.33;7.60;;;;;;;2.69;100.00;98863.13;5012459;28;20338;-66
2020/12/12 05:09:16;;;;;;;20.80;7.40;;;;;;;2.72;100.00;98863.13;5013248;28;20025;-65
2020/12/12 05:11:45;;;;;;;21.37;7.07;;;;;;;2.66;100.00;98865.69;5010173;28;20037;-65
2020/12/12 05:14:10;;;;;;;21.40;7.80;;;;;;;2.63;100.00;98860.50;5022942;28;20392;-66
2020/12/12 05:16:35;;;;;;;20.50;7.83;;;;;;;2.61;100.00;98864.81;5015295;28;20276;-64
2020/12/12 05:19:06;;;;;;;21.23;7.90;;;;;;;2.57;100.00;98863.09;5010764;28;20100;-65
2020/12/12 05:21:31;;;;;;;20.57;7.47;;;;;;;2.57;100.00;98865.66;5017488;28;20033;-65
2020/12/12 05:24:01;;;;;;;18.67;7.60;;;;;;;2.64;100.00;98857.06;5013579;28;20320;-66
2020/12/12 05:26:29;;;;;;;22.40;7.57;;;;;;;2.61;100.00;98864.81;5018249;28;20033;-65
2020/12/12 05:28:59;;;;;;;16.57;6.93;;;;;;;2.64;100.00;98857.06;5021572;28;20285;-65
2020/12/12 05:31:27;;;;;;;16.70;6.87;;;;;;;2.70;100.00;98870.00;5009848;28;20287;-66
2020/12/12 05:33:53;;;;;;;19.53;7.73;;;;;;;2.69;100.00;98868.28;5020264;28;20831;-65
2020/12/12 05:36:26;;;;;;;21.17;7.97;;;;;;;2.64;100.00;98875.13;5020502;28;20352;-65
2020/12/12 05:38:59;;;;;;;19.07;6.83;;;;;;;2.74;100.00;98871.72;5012443;28;20322;-64
2020/12/12 05:41:25;;;;;;;;;;;;;;;2.70;100.00;98880.34;5023375;28;20283;-65
2020/12/12 05:43:51;;;;;;;23.30;8.13;;;;;;;2.64;100.00;98875.13;5019946;28;19948;-65
2020/12/12 05:46:19;;;;;;;20.90;7.27;;;;;;;2.60;100.00;98878.56;5007301;28;20318;-65
2020/12/12 05:48:46;;;;;;;22.17;8.80;;;;;;;2.60;100.00;98879.44;5010563;28;20034;-64
2020/12/12 05:51:13;;;;;;;20.80;8.03;;;;;;;2.64;100.00;98885.47;5011159;28;20747;-63
2020/12/12 05:53:43;;;;;;;26.50;9.17;;;;;;;2.56;100.00;98877.72;5004143;28;20295;-64
2020/12/12 05:56:10;;;;;;;24.53;8.93;;;;;;;2.57;100.00;98878.56;5022581;28;20300;-64
2020/12/12 05:58:38;;;;;;;22.80;8.03;;;;;;;2.55;100.00;98880.28;5007739;28;20269;-65
2020/12/12 06:01:04;;;;;;;20.27;7.73;;;;;;;2.57;100.00;98878.56;5009679;28;20360;-64
2020/12/12 06:03:32;;;;;;;21.63;8.50;;;;;;;2.62;100.00;98877.72;5017635;28;20269;-66
2020/12/12 06:06:05;;;;;;;24.17;8.00;;;;;;;2.64;100.00;98885.47;5009913;28;20303;-64
2020/12/12 06:08:36;;;;;;;26.10;8.77;;;;;;;2.58;100.00;98882.88;5012971;28;20316;-67
2020/12/12 06:11:05;;;;;;;21.40;7.20;;;;;;;2.58;100.00;98886.31;5025084;28;20283;-65
2020/12/12 06:13:37;;;;;;;22.67;7.43;;;;;;;2.56;100.00;98885.44;4992844;28;20262;-64
2020/12/12 06:16:04;;;;;;;23.73;7.70;;;;;;;2.58;100.00;98888.03;5016170;28;20306;-65
2020/12/12 06:18:44;;;;;;;21.47;8.30;;;;;;;2.63;100.00;98894.91;5010141;28;20033;-65
2020/12/12 06:21:11;;;;;;;21.90;7.90;;;;;;;2.63;100.00;98906.97;5020429;28;20350;-65
2020/12/12 06:23:38;;;;;;;21.23;8.67;;;;;;;2.62;100.00;98902.66;5019981;28;20280;-65
2020/12/12 06:26:08;;;;;;;24.23;8.00;;;;;;;2.63;100.00;98904.38;5016792;28;20364;-65
2020/12/12 06:28:43;;;;;;;24.33;8.53;;;;;;;2.63;100.00;98901.78;5011362;28;20285;-65
2020/12/12 06:31:13;;;;;;;26.23;8.73;;;;;;;2.60;100.00;98907.81;5000159;28;20284;-65
2020/12/12 06:33:52;;;;;;;27.67;9.87;;;;;;;2.62;100.00;98907.81;5012292;28;20292;-66
2020/12/12 06:36:29;;;;;;;26.43;9.43;;;;;;;2.68;100.00;98918.19;5028622;28;20364;-65
2020/12/12 06:39:30;;;;;;;23.67;9.03;;;;;;;2.67;100.00;98921.63;5016454;28;20269;-65
2020/12/12 06:41:58;;;;;;;25.83;9.13;;;;;;;2.69;100.00;98922.47;4961088;28;20286;-64
2020/12/12 06:44:42;;;;;;;23.50;8.30;;;;;;;2.70;100.00;98916.47;5015961;28;20277;-65
2020/12/12 06:47:08;;;;;;;24.37;8.47;;;;;;;2.72;100.00;98919.03;5004836;28;20371;-64
2020/12/12 06:49:34;;;;;;;22.37;8.03;;;;;;;2.75;100.00;98925.06;5013817;28;20372;-66
2020/12/12 06:52:00;;;;;;;22.97;8.37;;;;;;;2.75;100.00;98925.06;5021821;28;20749;-64
2020/12/12 06:54:26;;;;;;;24.60;9.13;;;;;;;2.77;100.00;98928.50;5019466;28;20308;-63
2020/12/12 06:56:51;;;;;;;30.77;10.13;;;;;;;2.77;100.00;98933.66;5013135;28;20364;-65
2020/12/12 06:59:35;;;;;;;23.13;9.13;;;;;;;2.81;100.00;98930.25;5015313;28;20026;-64
2020/12/12 07:02:03;;;;;;;25.90;9.93;;;;;;;2.84;100.00;98935.44;5027977;28;20433;-65
2020/12/12 07:04:37;;;;;;;24.27;9.00;;;;;;;2.78;100.00;98940.56;5015334;28;20284;-67
2020/12/12 07:07:05;;;;;;;25.03;9.87;;;;;;;2.79;100.00;98931.97;5014532;28;20288;-67
2020/12/12 07:09:31;;;;;;;23.60;9.70;;;;;;;2.78;100.00;98944.84;5021661;28;20297;-65
2020/12/12 07:11:57;;;;;;;21.50;8.27;;;;;;;2.79;100.00;98938.88;5012973;28;20337;-64
2020/12/12 07:14:23;;;;;;;27.40;10.13;;;;;;;2.75;100.00;98948.28;5017250;28;20493;-63
2020/12/12 07:16:57;;;;;;;28.63;9.67;;;;;;;2.79;100.00;98951.78;5012387;28;20084;-66
2020/12/12 07:19:35;;;;;;;28.33;10.07;;;;;;;2.78;100.00;98950.88;5015839;28;20300;-66
2020/12/12 07:22:03;;;;;;;32.27;11.30;;;;;;;2.80;100.00;98956.94;5014146;28;20306;-66
2020/12/12 07:24:28;;;;;;;34.83;12.23;;;;;;;2.79;100.00;98951.78;5017844;28;20773;-66
2020/12/12 07:26:54;;;;;;;24.77;8.87;;;;;;;2.82;100.00;98959.50;5012702;28;20277;-66
2020/12/12 07:29:20;;;;;;;24.23;8.93;;;;;;;2.88;100.00;98956.94;5020046;28;20574;-66
2020/12/12 07:31:46;;;;;;;25.90;9.27;;;;;;;2.93;100.00;98956.13;5014605;28;20289;-65
2020/12/12 07:34:17;;;;;;;24.37;9.53;;;;;;;2.90;100.00;98966.41;5015083;28;20502;-67
2020/12/12 07:36:43;;;;;;;24.23;8.10;;;;;;;2.94;100.00;98975.91;5016065;28;20289;-65
2020/12/12 07:39:09;;;;;;;28.07;10.37;;;;;;;2.86;100.00;98964.69;5013544;28;20655;-66
2020/12/12 07:41:43;;;;;;;28.00;9.63;;;;;;;2.88;100.00;98968.13;5010059;28;20040;-65
2020/12/12 07:44:09;;;;;;;24.40;10.03;;;;;;;2.90;100.00;98974.16;5015544;28;20771;-66
2020/12/12 07:46:41;;;;;;;23.80;9.57;;;;;;;2.88;100.00;98983.63;5017122;28;20291;-65
2020/12/12 07:49:10;;;;;;;26.30;10.47;;;;;;;2.85;100.00;98981.03;5010517;28;20083;-65
2020/12/12 07:51:35;;;;;;;25.57;8.63;;;;;;;2.90;100.00;98987.06;5012670;28;20292;-66
2020/12/12 07:54:23;;;;;;;27.97;10.13;;;;;;;2.90;100.00;98993.94;5015273;28;20660;-67
2020/12/12 07:56:50;;;;;;;29.10;11.23;;;;;;;2.92;100.00;99000.88;5011212;28;20041;-65
2020/12/12 07:59:19;;;;;;;28.80;10.23;;;;;;;2.92;100.00;99006.03;5019056;28;20332;-65
2020/12/12 08:01:46;;;;;;;29.63;10.07;;;;;;;2.87;100.00;99007.69;5012099;28;20659;-67
2020/12/12 08:04:19;;;;;;;27.67;8.80;;;;;;;2.88;100.00;99009.44;5018377;28;20280;-64
2020/12/12 08:06:45;;;;;;;;;;;;;;;2.93;100.00;99012.06;5024058;28;20337;-64
2020/12/12 08:09:10;;;;;;;26.57;9.83;;;;;;;2.89;100.00;99018.03;5007503;28;19972;-68
2020/12/12 08:11:36;;;;;;;24.40;8.60;;;;;;;2.89;100.00;99021.47;5020238;28;20419;-65
2020/12/12 08:14:03;;;;;;;28.87;10.07;;;;;;;2.89;100.00;99036.97;5019217;28;20108;-65
2020/12/12 08:16:54;;;;;;;31.07;11.47;;;;;;;2.87;100.00;99032.66;5002827;28;20288;-65
2020/12/12 08:19:14;;;;;;;29.30;10.50;;;;;;;2.82;100.00;99032.63;5008833;28;20320;-65
2020/12/12 08:21:40;;;;;;;29.00;10.63;;;;;;;2.84;100.00;99037.81;5003201;28;20348;-64
2020/12/12 08:24:06;;;;;;;32.37;11.73;;;;;;;2.85;100.00;99040.38;5006602;28;20037;-64
2020/12/12 08:26:34;;;;;;;28.27;9.93;;;;;;;2.93;100.00;99045.59;5007707;28;20087;-65
2020/12/12 08:29:02;;;;;;;28.17;9.83;;;;;;;2.90;100.00;99046.44;5007247;28;20387;-65
2020/12/12 08:31:36;;;;;;;31.73;10.40;;;;;;;2.91;100.00;99050.78;5009916;28;20280;-65
2020/12/12 08:34:01;;;;;;;29.67;10.90;;;;;;;2.91;100.00;99049.91;5004166;28;20285;-64
2020/12/12 08:36:28;;;;;;;33.07;9.73;;;;;;;2.98;100.00;99050.78;5045710;28;20276;-64
2020/12/12 08:39:05;;;;;;;29.20;9.53;;;;;;;2.94;100.00;99055.94;5013047;28;20037;-63
2020/12/12 08:41:35;;;;;;;31.67;9.87;;;;;;;2.92;100.00;99059.38;5022760;28;20335;-62
2020/12/12 08:44:02;;;;;;;32.87;10.83;;;;;;;2.97;100.00;99060.25;5009456;28;20311;-65
2020/12/12 08:46:28;;;;;;;24.97;9.97;;;;;;;2.96;100.00;99055.06;5019435;28;20293;-64
2020/12/12 08:48:54;;;;;;;33.73;11.43;;;;;;;2.98;100.00;99058.53;5012083;28;20333;-65
2020/12/12 08:51:38;;;;;;;35.03;11.37;;;;;;;3.02;100.00;99068.00;5020540;28;20025;-65
2020/12/12 08:54:11;;;;;;;32.87;10.57;;;;;;;3.02;100.00;99068.00;5014626;28;20304;-64
2020/12/12 08:56:36;;;;;;;30.53;11.13;;;;;;;3.06;100.00;99069.75;5018575;28;20316;-65
2020/12/12 08:59:06;;;;;;;30.23;10.17;;;;;;;3.12;100.00;99074.94;5019605;28;20285;-63
2020/12/12 09:01:42;;;;;;;25.23;10.17;;;;;;;3.10;100.00;99076.66;5004587;28;20488;-63
2020/12/12 09:04:08;;;;;;;28.93;9.83;;;;;;;3.14;100.00;99068.06;5014098;28;20304;-64
2020/12/12 09:06:55;;;;;;;32.50;10.80;;;;;;;3.15;100.00;99074.94;5023314;28;20737;-63
2020/12/12 09:09:24;;;;;;;29.23;9.60;;;;;;;3.22;100.00;99087.06;4998952;28;20045;-66
2020/12/12 09:11:59;;;;;;;25.90;9.97;;;;;;;3.22;100.00;99084.47;5027578;28;20383;-65
2020/12/12 09:14:27;;;;;;;26.77;9.67;;;;;;;3.26;100.00;99088.78;5015308;28;20375;-66
2020/12/12 09:16:58;;;;;;;27.93;9.77;;;;;;;3.27;100.00;99100.88;5018576;28;20802;-65
2020/12/12 09:19:24;;;;;;;31.40;11.37;;;;;;;3.29;100.00;99104.31;5010052;28;20280;-67
2020/12/12 09:21:50;;;;;;;27.40;10.43;;;;;;;3.33;100.00;99095.72;5017041;28;20284;-67
2020/12/12 09:24:18;;;;;;;24.57;8.97;;;;;;;3.34;100.00;99100.03;5016926;28;20291;-67
2020/12/12 09:26:44;;;;;;;30.03;10.80;;;;;;;3.39;100.00;99100.91;5017565;28;20042;-67
2020/12/12 09:29:09;;;;;;;24.53;9.23;;;;;;;3.45;100.00;99100.94;5017271;28;20313;-67
2020/12/12 09:31:34;;;;;;;25.03;8.27;;;;;;;3.51;100.00;99097.50;5008535;28;20041;-68
2020/12/12 09:34:00;;;;;;;26.17;10.10;;;;;;;3.58;100.00;99104.41;5013801;28;20109;-66
2020/12/12 09:36:26;;;;;;;39.07;12.93;;;;;;;3.56;100.00;99107.88;5020956;28;20044;-67
2020/12/12 09:38:52;;;;;;;28.73;10.37;;;;;;;3.64;100.00;99113.94;5008551;28;20038;-67
2020/12/12 09:41:18;;;;;;;22.90;9.20;;;;;;;3.68;100.00;99113.06;5018817;28;20120;-66
2020/12/12 09:43:43;;;;;;;26.80;9.87;;;;;;;3.67;100.00;99108.78;5020234;28;20091;-66
2020/12/12 09:46:09;;;;;;;33.03;11.87;;;;;;;3.66;100.00;99120.84;5021126;28;20040;-66
2020/12/12 09:48:36;;;;;;;27.30;9.93;;;;;;;3.68;100.00;99119.09;5017852;28;20034;-67
2020/12/12 09:51:03;;;;;;;29.63;10.50;;;;;;;3.71;100.00;99118.25;5022584;28;20368;-65
2020/12/12 09:53:29;;;;;;;31.27;10.37;;;;;;;3.70;100.00;99121.69;5008734;28;20368;-67
2020/12/12 09:55:55;;;;;;;27.20;9.70;;;;;;;3.68;100.00;99123.41;5023632;28;20288;-67
2020/12/12 09:58:21;;;;;;;27.00;10.83;;;;;;;3.70;100.00;99121.69;5014588;28;20057;-67
2020/12/12 10:00:47;;;;;;;28.17;10.07;;;;;;;3.76;100.00;99126.91;5024093;28;20723;-67
2020/12/12 10:03:12;;;;;;;23.30;8.77;;;;;;;3.77;100.00;99133.78;5017300;28;20105;-66
2020/12/12 10:05:38;;;;;;;25.17;9.90;;;;;;;3.82;100.00;99126.91;5015423;28;20032;-67
2020/12/12 10:08:04;;;;;;;28.13;10.67;;;;;;;3.84;100.00;99130.34;5012555;28;20033;-65
2020/12/12 10:10:30;;;;;;;23.30;9.87;;;;;;;3.87;100.00;99130.34;5017621;28;20488;-66
2020/12/12 10:12:57;;;;;;;28.70;9.47;;;;;;;3.88;100.00;99136.38;5016413;28;20273;-66
2020/12/12 10:15:23;;;;;;;26.50;9.00;;;;;;;3.88;100.00;99137.28;5024154;28;20284;-65
2020/12/12 10:17:50;;;;;;;31.67;10.20;;;;;;;3.97;100.00;99139.00;4996140;28;20802;-65
2020/12/12 10:20:17;;;;;;;25.43;10.47;;;;;;;3.97;100.00;99146.75;5033297;28;20367;-65
2020/12/12 10:22:43;;;;;;;28.70;9.13;;;;;;;4.02;100.00;99143.34;5031003;28;20338;-65
2020/12/12 10:25:08;;;;;;;26.83;9.83;;;;;;;4.03;100.00;99142.47;5012663;28;20279;-68
2020/12/12 10:27:35;;;;;;;24.50;9.57;;;;;;;4.09;100.00;99152.81;5013901;28;20524;-67
2020/12/12 10:30:01;;;;;;;27.00;9.63;;;;;;;4.14;100.00;99146.81;5012098;28;20132;-68
2020/12/12 10:32:26;;;;;;;28.83;9.53;;;;;;;4.18;100.00;99151.13;5011726;28;20897;-68
2020/12/12 10:34:52;;;;;;;25.80;8.93;;;;;;;4.24;100.00;99156.28;5005507;28;20116;-68
2020/12/12 10:37:17;;;;;;;27.40;9.47;;;;;;;4.31;100.00;99158.03;5021231;28;20037;-68
2020/12/12 10:42:27;;;;;;;25.33;9.23;;;;;;;4.44;100.00;99146.84;5009984;28;20072;-68
2020/12/12 10:44:52;;;;;;;24.60;8.70;;;;;;;4.43;100.00;99141.69;5006531;28;20350;-67
2020/12/12 10:47:18;;;;;;;25.57;8.87;;;;;;;4.44;100.00;99152.03;5010979;28;20340;-68
2020/12/12 10:49:43;;;;;;;25.70;10.20;;;;;;;4.46;100.00;99142.53;5013119;28;20045;-66
2020/12/12 10:52:09;;;;;;;25.03;9.33;;;;;;;4.50;100.00;99149.47;5008206;28;20033;-67
2020/12/12 10:54:34;;;;;;;22.77;9.13;;;;;;;4.55;100.00;99152.91;5018807;28;20033;-68
2020/12/12 10:57:00;;;;;;;24.43;9.17;;;;;;;4.55;100.00;99152.91;5015752;28;20116;-68
2020/12/12 10:59:25;;;;;;;25.70;9.43;;;;;;;4.57;100.00;99155.47;5009018;28;20022;-67
2020/12/12 11:01:52;;;;;;;24.93;9.10;;;;;;;4.60;100.00;99156.38;5008419;28;20050;-66
2020/12/12 11:04:18;;;;;;;27.63;9.83;;;;;;;4.64;100.00;99172.75;5011167;28;20178;-67
2020/12/12 11:06:43;;;;;;;22.97;9.13;;;;;;;4.63;100.00;99163.25;5012115;28;20829;-67
2020/12/12 11:09:09;;;;;;;27.13;9.33;;;;;;;4.66;100.00;99165.84;5015931;28;20030;-68
2020/12/12 11:11:38;;;;;;;26.17;8.57;;;;;;;4.75;100.00;99170.16;5014284;28;20043;-70
2020/12/12 11:14:04;;;;;;;22.10;8.83;;;;;;;4.74;100.00;99163.28;4998713;28;20034;-67
2020/12/12 11:16:30;;;;;;;24.23;9.47;;;;;;;4.69;100.00;99171.88;5007631;28;20295;-67
2020/12/12 11:18:55;;;;;;;23.70;9.57;;;;;;;4.78;100.00;99170.16;5008194;28;20272;-67
2020/12/12 11:21:21;;;;;;;22.03;8.80;;;;;;;4.89;100.00;99168.44;5009436;28;20061;-70
2020/12/12 11:23:47;;;;;;;20.53;8.30;;;;;;;4.91;100.00;99166.72;5005087;28;20033;-67
2020/12/12 11:26:13;;;;;;;22.77;9.63;;;;;;;5.02;100.00;99167.56;5006805;28;20311;-67
2020/12/12 11:28:40;;;;;;;25.03;9.40;;;;;;;5.13;100.00;99172.72;5009630;28;20455;-69
2020/12/12 11:31:06;;;;;;;23.80;8.77;;;;;;;5.23;100.00;99164.09;5010944;28;20418;-68